Flight Track Log - Related Links

Times and Time Zones

All times are in EDT time to prevent confusion due to time zone crossing. See the CTL337 flight status page for this flight to view local times or setup timezone preferences in your user account.


Time Position Orientation Groundspeed Altitude Reporting Facility
EDT Latitude Longitude Course Direction KTS MPH feet Rate Location/Type
Fri 09:58:10 PM 41.5125 -81.6978 308° West 105 121 900  Level Cleveland Center
Fri 09:59:10 PM 41.5289 -81.7258 308° West 94 108 2,300 1,289 Climbing Cleveland Center
Fri 10:00:11 PM 41.5433 -81.7594 300° West 107 123 3,500 1,200 Climbing Cleveland Center
Fri 10:01:30 PM 41.5200 -81.7922 226° Southwest 111 128 5,100 1,079 Climbing Cleveland Center
Fri 10:02:30 PM 41.4925 -81.8194 217° Southwest 111 128 6,000 496 Climbing Cleveland Center
Fri 10:03:31 PM 41.4589 -81.8494 214° Southwest 169 194 6,100 -52 Climbing Cleveland Center
Fri 10:04:26 PM 41.4231 -81.8819 214° Southwest 185 213 5,900 -55 Descending Cleveland Center
Fri 10:05:20 PM 41.3853 -81.9142 213° Southwest 172 198 6,000  Climbing Cleveland Center
Fri 10:06:21 PM 41.3453 -81.9494 214° Southwest 176 203 5,900 -47 Descending Cleveland Center
Fri 10:07:27 PM 41.2989 -81.9928 215° Southwest 179 206 5,900 47 Level Cleveland Center
Fri 10:08:28 PM 41.2567 -82.0333 216° Southwest 176 203 6,000 30 Climbing Cleveland Center
Fri 10:10:47 PM 41.1714 -82.1075 213° Southwest 179 206 6,000  Level Indianapolis Center
Fri 10:11:48 PM 41.1314 -82.1464 216° Southwest 177 204 6,000 -49 Level Indianapolis Center
Fri 10:12:49 PM 41.0831 -82.1892 214° Southwest 178 205 5,900 -49 Descending Indianapolis Center
Fri 10:13:50 PM 41.0428 -82.2272 215° Southwest 177 204 5,900  Level Indianapolis Center
Fri 10:14:51 PM 41.0036 -82.2644 216° Southwest 174 200 5,900 49 Level Indianapolis Center
Fri 10:15:52 PM 40.9633 -82.3003 214° Southwest 173 199 6,000 49 Climbing Indianapolis Center
Fri 10:16:54 PM 40.9231 -82.3381 215° Southwest 175 201 6,000 -49 Level Indianapolis Center
Fri 10:17:55 PM 40.8842 -82.3750 216° Southwest 173 199 5,900  Descending Indianapolis Center
Fri 10:18:56 PM 40.8444 -82.4122 215° Southwest 173 199 6,000 49 Climbing Indianapolis Center
Fri 10:19:57 PM 40.8039 -82.4478 214° Southwest 174 200 6,000 -49 Level Indianapolis Center
Fri 10:20:58 PM 40.7636 -82.4844 215° Southwest 175 201 5,900 -49 Descending Indianapolis Center
Fri 10:21:59 PM 40.7242 -82.5206 215° Southwest 173 199 5,900  Level Indianapolis Center
Fri 10:23:00 PM 40.6847 -82.5581 216° Southwest 173 199 5,900  Level Indianapolis Center
Fri 10:24:01 PM 40.6475 -82.5972 219° Southwest 170 196 5,900  Level Indianapolis Center
Fri 10:25:02 PM 40.6064 -82.6339 214° Southwest 175 201 5,900  Level Indianapolis Center
Fri 10:26:03 PM 40.5661 -82.6694 214° Southwest 174 200 5,900  Level Indianapolis Center
Fri 10:27:04 PM 40.5264 -82.7078 216° Southwest 175 201 5,900  Level Indianapolis Center
Fri 10:28:05 PM 40.4856 -82.7447 215° Southwest 176 203 5,900  Level Indianapolis Center
Fri 10:28:35 PM 40.4619 -82.7683 217° Southwest 176 203 5,900  Level Indianapolis Center
Fri 10:29:06 PM 40.4442 -82.7786 204° Southwest 174 200 5,900  Level Indianapolis Center
Fri 10:29:29 PM 40.4242 -82.7997 219° Southwest 176 203 5,900 -97 Level Indianapolis Center
Fri 10:30:08 PM 40.4033 -82.8158 210° Southwest 178 205 5,800 -295 Descending Indianapolis Center
Fri 10:30:30 PM 40.3803 -82.8331 210° Southwest 181 208 5,600 -492 Descending Indianapolis Center
Fri 10:31:09 PM 40.3575 -82.8478 206° Southwest 183 211 5,300 -627 Descending Indianapolis Center
Fri 10:31:37 PM 40.3294 -82.8739 215° Southwest 192 221 4,900 -689 Descending Indianapolis Center
Fri 10:32:10 PM 40.3036 -82.8903 206° Southwest 190 219 4,600 -500 Descending Indianapolis Center
Fri 10:32:37 PM 40.2850 -82.9125 222° Southwest 191 220 4,400 -492 Descending Indianapolis Center
Fri 10:33:11 PM 40.2594 -82.9306 208° Southwest 191 220 4,100 -590 Descending Indianapolis Center
Fri 10:33:38 PM 40.2406 -82.9511 220° Southwest 190 219 3,800 -885 Descending Indianapolis Center
Fri 10:34:12 PM 40.2153 -82.9700 210° Southwest 192 221 3,200 -1,091 Descending Indianapolis Center
Fri 10:34:33 PM 40.1983 -82.9844 213° Southwest 198 228 2,800 -689 Descending Indianapolis Center
Fri 10:35:13 PM 40.1692 -83.0081 212° Southwest 194 223 2,500 -393 Descending Indianapolis Center
Fri 10:35:34 PM 40.1542 -83.0203 212° Southwest 182 209 2,400 -590 Descending Indianapolis Center
Fri 10:36:14 PM 40.1269 -83.0428 212° Southwest 186 214 1,900 -600 Descending Indianapolis Center
Fri 10:36:34 PM 40.1144 -83.0511 207° Southwest 169 194 1,800 -197 Descending Indianapolis Center
Fri 10:37:15 PM 40.1017 -83.0786 239° Southwest 159 183 1,700 -408 Descending Indianapolis Center
Fri 10:38:17 PM 40.0797 -83.0983 215° Southwest 124 143 1,100 -341 Descending Indianapolis Center
Fri 10:39:18 PM 40.0722 -83.0733 111° Southeast 111 128 1,000 -98 Descending Indianapolis Center

Login

Don't have an account? Register now (free) for customized features, flight alerts, and more!